createdAt,value
2023-05-13T00:00:24.951Z,422
2023-05-13T00:01:26.286Z,421
2023-05-13T00:02:24.460Z,418
2023-05-13T00:03:24.559Z,407
2023-05-13T00:04:24.116Z,411
2023-05-13T00:05:24.058Z,419
2023-05-13T00:07:24.186Z,414
2023-05-13T00:08:24.410Z,409
2023-05-13T00:09:24.487Z,407
2023-05-13T00:10:24.680Z,416
2023-05-13T00:11:24.626Z,424
2023-05-13T00:12:24.815Z,430
2023-05-13T00:13:23.936Z,427
2023-05-13T00:14:23.676Z,419
2023-05-13T00:15:24.584Z,417
2023-05-13T00:16:24.393Z,423
2023-05-13T00:17:24.694Z,419
2023-05-13T00:18:24.418Z,426
2023-05-13T00:20:24.279Z,420
2023-05-13T00:21:24.342Z,434
2023-05-13T00:22:24.561Z,421
2023-05-13T00:23:24.583Z,417
2023-05-13T00:24:24.356Z,421
2023-05-13T00:25:24.467Z,422
2023-05-13T00:26:24.512Z,428
2023-05-13T00:27:24.255Z,430
2023-05-13T00:28:24.188Z,418
2023-05-13T00:29:24.141Z,422
2023-05-13T00:30:24.947Z,427
2023-05-13T00:31:24.062Z,415
2023-05-13T00:32:24.260Z,417
2023-05-13T00:33:24.034Z,424
2023-05-13T00:34:23.986Z,428
2023-05-13T00:35:24.072Z,425
2023-05-13T00:36:23.984Z,421
2023-05-13T00:38:24.335Z,431
2023-05-13T00:39:24.377Z,427
2023-05-13T00:40:24.531Z,421
2023-05-13T00:41:23.892Z,420
2023-05-13T00:42:24.099Z,415
2023-05-13T00:43:24.221Z,413
2023-05-13T00:44:24.115Z,420
2023-05-13T00:45:24.074Z,411
2023-05-13T00:47:24.516Z,415
2023-05-13T00:48:24.599Z,419
2023-05-13T00:49:24.537Z,427
2023-05-13T00:50:24.710Z,431
2023-05-13T00:51:24.243Z,422
2023-05-13T00:52:24.354Z,417
2023-05-13T00:53:24.340Z,414
2023-05-13T00:54:24.485Z,408
2023-05-13T00:55:24.743Z,419
2023-05-13T00:56:23.938Z,413
2023-05-13T00:57:24.080Z,411
2023-05-13T00:58:23.805Z,420
2023-05-13T00:59:24.875Z,416
2023-05-13T01:00:25.159Z,414
2023-05-13T01:01:29.547Z,417
2023-05-13T01:03:24.008Z,413
2023-05-13T01:04:23.876Z,405
2023-05-13T01:05:24.069Z,402
2023-05-13T01:06:23.927Z,416
2023-05-13T01:07:24.628Z,418
2023-05-13T01:08:24.439Z,429
2023-05-13T01:09:38.537Z,417
2023-05-13T01:10:24.861Z,413
2023-05-13T01:11:24.571Z,414
2023-05-13T01:12:24.508Z,429
2023-05-13T01:13:24.656Z,432
2023-05-13T01:14:24.080Z,423
2023-05-13T01:15:38.562Z,427
2023-05-13T01:16:23.986Z,424
2023-05-13T01:17:24.118Z,428
2023-05-13T01:18:24.463Z,437
2023-05-13T01:19:37.984Z,420
2023-05-13T01:20:24.473Z,423
2023-05-13T01:21:24.639Z,420
2023-05-13T01:22:24.800Z,425
2023-05-13T01:23:24.427Z,419
2023-05-13T01:24:24.284Z,410
2023-05-13T01:25:24.488Z,419
2023-05-13T01:26:24.307Z,408
2023-05-13T01:27:23.816Z,415
2023-05-13T01:28:24.633Z,412
2023-05-13T01:29:24.337Z,417
2023-05-13T01:30:24.517Z,424
2023-05-13T01:31:24.326Z,432
2023-05-13T01:32:24.502Z,423
2023-05-13T01:33:24.579Z,417
2023-05-13T01:34:24.436Z,410
2023-05-13T01:35:24.520Z,434
2023-05-13T01:36:24.607Z,426
2023-05-13T01:37:24.409Z,417
2023-05-13T01:38:24.345Z,409
2023-05-13T01:39:24.086Z,416
2023-05-13T01:40:31.770Z,421
2023-05-13T01:41:24.159Z,428
2023-05-13T01:42:24.143Z,419
2023-05-13T01:43:24.051Z,420
2023-05-13T01:44:23.908Z,433
2023-05-13T01:45:24.493Z,428
2023-05-13T01:46:24.524Z,420
2023-05-13T01:47:24.306Z,414
2023-05-13T01:48:24.405Z,406
2023-05-13T01:49:24.557Z,409
2023-05-13T01:50:24.777Z,421
2023-05-13T01:51:24.211Z,422
2023-05-13T01:52:24.390Z,421
2023-05-13T01:53:24.783Z,409
2023-05-13T01:55:23.965Z,421
2023-05-13T01:56:24.035Z,417
2023-05-13T01:57:23.909Z,411
2023-05-13T01:58:23.955Z,412
2023-05-13T01:59:24.888Z,421
2023-05-13T02:00:24.883Z,424
2023-05-13T02:01:23.942Z,419
2023-05-13T02:02:24.146Z,424
2023-05-13T02:03:24.604Z,419
2023-05-13T02:04:23.933Z,413
2023-05-13T02:05:24.191Z,428
2023-05-13T02:06:23.941Z,422
2023-05-13T02:07:23.755Z,429
2023-05-13T02:08:24.556Z,424
2023-05-13T02:09:24.699Z,418
2023-05-13T02:10:24.089Z,424
2023-05-13T02:11:24.615Z,411
2023-05-13T02:12:24.420Z,413
2023-05-13T02:13:24.363Z,409
2023-05-13T02:15:24.242Z,412
2023-05-13T02:16:23.969Z,423
2023-05-13T02:17:23.783Z,417
2023-05-13T02:18:23.721Z,424
2023-05-13T02:19:23.724Z,423
2023-05-13T02:20:24.729Z,419
2023-05-13T02:21:23.867Z,416
2023-05-13T02:22:23.817Z,414
2023-05-13T02:23:23.899Z,410
2023-05-13T02:24:24.564Z,417
2023-05-13T02:25:24.639Z,428
2023-05-13T02:26:24.071Z,417
2023-05-13T02:27:23.966Z,414
2023-05-13T02:28:23.906Z,424
2023-05-13T02:30:24.279Z,430
2023-05-13T02:31:24.361Z,424
2023-05-13T02:32:24.258Z,430
2023-05-13T02:33:24.332Z,424
2023-05-13T02:34:23.996Z,431
2023-05-13T02:35:23.786Z,420
2023-05-13T02:38:24.368Z,419
2023-05-13T02:40:24.552Z,424
2023-05-13T02:41:24.622Z,432
2023-05-13T02:42:24.646Z,421
2023-05-13T02:43:24.147Z,428
2023-05-13T02:44:24.190Z,422
2023-05-13T02:45:24.490Z,417
2023-05-13T02:46:24.447Z,425
2023-05-13T02:47:25.043Z,426
2023-05-13T02:48:24.078Z,435
2023-05-13T02:49:24.102Z,439
2023-05-13T02:50:24.408Z,425
2023-05-13T02:51:24.163Z,408
2023-05-13T02:52:24.081Z,416
2023-05-13T02:54:24.008Z,420
2023-05-13T02:55:24.232Z,419
2023-05-13T02:56:24.367Z,421
2023-05-13T02:57:24.240Z,431
2023-05-13T02:58:23.996Z,427
2023-05-13T02:59:24.024Z,424
2023-05-13T03:00:24.682Z,420
2023-05-13T03:01:23.944Z,422
2023-05-13T03:02:23.970Z,426
2023-05-13T03:03:24.133Z,410
2023-05-13T03:04:23.966Z,404
2023-05-13T03:05:24.206Z,412
2023-05-13T03:06:24.172Z,405
2023-05-13T03:07:24.223Z,413
2023-05-13T03:08:23.955Z,416
2023-05-13T03:09:23.943Z,426
2023-05-13T03:10:24.202Z,423
2023-05-13T03:11:24.200Z,429
2023-05-13T03:12:23.860Z,421
2023-05-13T03:13:24.532Z,414
2023-05-13T03:14:24.408Z,417
2023-05-13T03:15:24.689Z,415
2023-05-13T03:17:24.201Z,412
2023-05-13T03:18:24.353Z,408
2023-05-13T03:19:24.371Z,412
2023-05-13T03:20:24.483Z,407
2023-05-13T03:21:24.619Z,422
2023-05-13T03:22:24.574Z,420
2023-05-13T03:23:24.178Z,418
2023-05-13T03:24:24.108Z,422
2023-05-13T03:25:23.995Z,418
2023-05-13T03:26:24.063Z,413
2023-05-13T03:27:23.856Z,418
2023-05-13T03:28:23.881Z,424
2023-05-13T03:29:24.041Z,417
2023-05-13T03:30:24.147Z,412
2023-05-13T03:31:23.957Z,421
2023-05-13T03:33:23.758Z,428
2023-05-13T03:34:24.607Z,436
2023-05-13T03:35:24.495Z,428
2023-05-13T03:36:24.673Z,425
2023-05-13T03:37:24.686Z,417
2023-05-13T03:38:24.686Z,430
2023-05-13T03:39:23.945Z,439
2023-05-13T03:40:24.273Z,436
2023-05-13T03:42:24.218Z,423
2023-05-13T03:43:24.026Z,417
2023-05-13T03:44:23.839Z,426
2023-05-13T03:45:24.066Z,429
2023-05-13T03:46:24.169Z,423
2023-05-13T03:47:24.415Z,414
2023-05-13T03:48:24.837Z,416
2023-05-13T03:49:24.007Z,411
2023-05-13T03:50:24.121Z,415
2023-05-13T03:51:24.630Z,429
2023-05-13T03:52:24.629Z,426
2023-05-13T03:53:24.178Z,419
2023-05-13T03:54:24.241Z,416
2023-05-13T03:55:24.516Z,420
2023-05-13T03:56:24.492Z,425
2023-05-13T03:57:24.739Z,420
2023-05-13T03:58:24.065Z,427
2023-05-13T03:59:24.174Z,422
2023-05-13T04:00:25.018Z,429
2023-05-13T04:01:24.372Z,431
2023-05-13T04:02:24.915Z,428
2023-05-13T04:03:24.803Z,415
2023-05-13T04:04:24.439Z,417
2023-05-13T04:05:24.853Z,421
2023-05-13T04:06:24.300Z,416
2023-05-13T04:07:24.453Z,427
2023-05-13T04:08:24.844Z,431
2023-05-13T04:09:24.393Z,421
2023-05-13T04:10:24.567Z,417
2023-05-13T04:11:24.893Z,424
2023-05-13T04:12:24.228Z,425
2023-05-13T04:13:24.435Z,424
2023-05-13T04:14:24.407Z,417
2023-05-13T04:15:24.951Z,414
2023-05-13T04:16:24.644Z,429
2023-05-13T04:17:24.101Z,433
2023-05-13T04:18:24.381Z,430
2023-05-13T04:19:24.560Z,433
2023-05-13T04:21:28.608Z,419
2023-05-13T04:22:24.780Z,427
2023-05-13T04:23:24.045Z,420
2023-05-13T04:24:24.438Z,412
2023-05-13T04:25:24.765Z,417
2023-05-13T04:26:24.106Z,426
2023-05-13T04:27:24.174Z,421
2023-05-13T04:28:24.263Z,426
2023-05-13T04:29:24.357Z,432
2023-05-13T04:30:24.394Z,437
2023-05-13T04:31:24.174Z,430
2023-05-13T04:32:24.607Z,425
2023-05-13T04:33:24.121Z,423
2023-05-13T04:34:24.330Z,424
2023-05-13T04:35:24.704Z,433
2023-05-13T04:37:24.406Z,432
2023-05-13T04:38:24.584Z,437
2023-05-13T04:39:24.514Z,429
2023-05-13T04:40:24.487Z,421
2023-05-13T04:41:24.851Z,411
2023-05-13T04:42:24.308Z,419
2023-05-13T04:43:24.695Z,428
2023-05-13T04:44:24.513Z,426
2023-05-13T04:45:24.931Z,427
2023-05-13T04:46:24.360Z,435
2023-05-13T04:47:24.966Z,431
2023-05-13T04:48:24.366Z,433
2023-05-13T04:49:25.019Z,431
2023-05-13T04:50:24.921Z,433
2023-05-13T04:51:24.962Z,432
2023-05-13T04:52:24.248Z,423
2023-05-13T04:53:24.313Z,432
2023-05-13T04:54:24.759Z,436
2023-05-13T04:55:26.729Z,429
2023-05-13T04:56:24.372Z,428
2023-05-13T04:57:24.783Z,431
2023-05-13T04:58:24.180Z,428
2023-05-13T04:59:24.409Z,420
2023-05-13T05:00:24.959Z,423
2023-05-13T05:01:24.712Z,425
2023-05-13T05:02:24.767Z,442
2023-05-13T05:03:24.253Z,431
2023-05-13T05:04:24.613Z,428
2023-05-13T05:05:24.356Z,426
2023-05-13T05:06:24.544Z,420
2023-05-13T05:07:24.096Z,413
2023-05-13T05:09:24.170Z,418
2023-05-13T05:12:24.773Z,420
2023-05-13T05:13:24.165Z,410
2023-05-13T05:14:24.512Z,412
2023-05-13T05:15:24.416Z,410
2023-05-13T05:16:24.805Z,408
2023-05-13T05:17:24.215Z,409
2023-05-13T05:18:24.645Z,405
2023-05-13T05:19:24.328Z,399
2023-05-13T05:20:24.949Z,379
2023-05-13T05:21:24.371Z,383
2023-05-13T05:22:24.540Z,394
2023-05-13T05:23:24.540Z,401
2023-05-13T05:24:24.479Z,392
2023-05-13T05:25:24.879Z,385
2023-05-13T05:26:24.098Z,388
2023-05-13T05:28:24.303Z,392
2023-05-13T05:29:24.398Z,389
2023-05-13T05:30:25.183Z,380
2023-05-13T05:31:24.313Z,377
2023-05-13T05:32:25.023Z,379
2023-05-13T05:33:24.700Z,391
2023-05-13T05:34:24.289Z,393
2023-05-13T05:35:24.608Z,394
2023-05-13T05:36:24.853Z,389
2023-05-13T05:37:24.039Z,380
2023-05-13T05:38:24.287Z,376
2023-05-13T05:39:24.453Z,375
2023-05-13T05:40:25.004Z,387
2023-05-13T05:41:24.084Z,380
2023-05-13T05:42:24.459Z,374
2023-05-13T05:43:24.727Z,376
2023-05-13T05:44:23.830Z,375
2023-05-13T05:45:24.271Z,379
2023-05-13T05:47:24.848Z,374
2023-05-13T05:48:24.309Z,388
2023-05-13T05:49:24.537Z,381
2023-05-13T05:50:24.957Z,378
2023-05-13T05:51:24.644Z,382
2023-05-13T05:52:24.195Z,376
2023-05-13T05:53:24.563Z,368
2023-05-13T05:55:32.392Z,370
2023-05-13T05:56:24.626Z,376
2023-05-13T05:57:24.021Z,377
2023-05-13T05:59:24.825Z,379
2023-05-13T06:00:25.200Z,370
2023-05-13T06:01:24.604Z,375
2023-05-13T06:02:23.949Z,374
2023-05-13T06:03:24.483Z,373
2023-05-13T06:04:24.174Z,365
2023-05-13T06:06:24.353Z,375
2023-05-13T06:07:24.554Z,381
2023-05-13T06:08:24.250Z,366
2023-05-13T06:09:24.600Z,367
2023-05-13T06:11:24.674Z,355
2023-05-13T06:12:23.932Z,360
2023-05-13T06:13:24.373Z,358
2023-05-13T06:14:24.850Z,355
2023-05-13T06:15:24.404Z,364
2023-05-13T06:16:24.643Z,372
2023-05-13T06:17:24.188Z,368
2023-05-13T06:18:24.657Z,371
2023-05-13T06:19:24.317Z,372
2023-05-13T06:20:24.668Z,354
2023-05-13T06:21:24.638Z,356
2023-05-13T06:22:23.943Z,357
2023-05-13T06:23:24.139Z,348
2023-05-13T06:24:24.175Z,347
2023-05-13T06:25:24.743Z,353
2023-05-13T06:26:24.105Z,365
2023-05-13T06:27:24.327Z,372
2023-05-13T06:28:24.431Z,367
2023-05-13T06:29:24.715Z,374
2023-05-13T06:30:25.122Z,370
2023-05-13T06:31:24.546Z,360
2023-05-13T06:32:24.595Z,361
2023-05-13T06:33:24.856Z,363
2023-05-13T06:34:23.993Z,364
2023-05-13T06:36:24.504Z,361
2023-05-13T06:37:24.084Z,370
2023-05-13T06:38:24.320Z,367
2023-05-13T06:39:24.608Z,364
2023-05-13T06:40:24.943Z,357
2023-05-13T06:41:24.298Z,359
2023-05-13T06:42:24.327Z,362
2023-05-13T06:43:24.816Z,364
2023-05-13T06:44:24.144Z,375
2023-05-13T06:45:24.429Z,380
2023-05-13T06:46:24.712Z,362
2023-05-13T06:47:24.390Z,366
2023-05-13T06:48:24.799Z,373
2023-05-13T06:49:24.216Z,367
2023-05-13T06:50:24.783Z,373
2023-05-13T06:51:24.233Z,362
2023-05-13T06:52:24.293Z,359
2023-05-13T06:53:24.219Z,360
2023-05-13T06:54:24.418Z,364
2023-05-13T06:55:25.118Z,368
2023-05-13T06:57:32.251Z,361
2023-05-13T06:58:24.582Z,353
2023-05-13T06:59:25.098Z,373
2023-05-13T07:00:25.413Z,384
2023-05-13T07:01:24.702Z,372
2023-05-13T07:02:24.394Z,375
2023-05-13T07:03:24.778Z,367
2023-05-13T07:04:24.438Z,362
2023-05-13T07:05:24.923Z,368
2023-05-13T07:06:24.354Z,376
2023-05-13T07:07:24.551Z,372
2023-05-13T07:08:24.339Z,369
2023-05-13T07:09:24.540Z,360
2023-05-13T07:10:24.613Z,346
2023-05-13T07:11:24.461Z,357
2023-05-13T07:12:24.949Z,364
2023-05-13T07:13:24.397Z,360
2023-05-13T07:14:24.268Z,361
2023-05-13T07:15:24.755Z,359
2023-05-13T07:16:24.281Z,355
2023-05-13T07:17:24.717Z,369
2023-05-13T07:19:24.158Z,363
2023-05-13T07:20:24.857Z,359
2023-05-13T07:22:24.412Z,377
2023-05-13T07:23:24.589Z,376
2023-05-13T07:24:24.870Z,373
2023-05-13T07:25:24.571Z,364
2023-05-13T07:26:24.753Z,371
2023-05-13T07:27:24.134Z,367
2023-05-13T07:29:25.298Z,372
2023-05-13T07:30:24.806Z,360
2023-05-13T07:31:24.698Z,353
2023-05-13T07:32:24.326Z,362
2023-05-13T07:33:24.363Z,373
2023-05-13T07:34:24.396Z,379
2023-05-13T07:35:24.697Z,381
2023-05-13T07:36:24.097Z,364
2023-05-13T07:37:24.278Z,375
2023-05-13T07:38:24.430Z,368
2023-05-13T07:39:24.929Z,357
2023-05-13T07:40:24.460Z,373
2023-05-13T07:41:24.813Z,370
2023-05-13T07:42:24.301Z,386
2023-05-13T07:43:24.487Z,380
2023-05-13T07:44:24.312Z,375
2023-05-13T07:45:24.998Z,379
2023-05-13T07:46:24.666Z,376
2023-05-13T07:47:24.618Z,382
2023-05-13T07:48:24.931Z,390
2023-05-13T07:49:24.526Z,375
2023-05-13T07:50:25.249Z,364
2023-05-13T07:51:24.715Z,365
2023-05-13T07:52:24.360Z,374
2023-05-13T07:53:24.790Z,364
2023-05-13T07:54:24.289Z,365
2023-05-13T07:55:24.954Z,367
2023-05-13T07:56:24.446Z,359
2023-05-13T07:57:24.089Z,365
2023-05-13T07:58:24.601Z,371
2023-05-13T07:59:24.442Z,366
2023-05-13T08:00:25.282Z,365
2023-05-13T08:01:24.289Z,363
2023-05-13T08:02:24.969Z,364
2023-05-13T08:03:24.804Z,367
2023-05-13T08:04:25.053Z,360
2023-05-13T08:05:24.783Z,354
2023-05-13T08:06:29.400Z,344
2023-05-13T08:07:24.891Z,350
2023-05-13T08:09:24.812Z,351
2023-05-13T08:11:24.334Z,348
2023-05-13T08:12:24.555Z,355
2023-05-13T08:13:24.740Z,358
2023-05-13T08:14:24.714Z,372
2023-05-13T08:15:24.506Z,384
2023-05-13T08:17:24.520Z,369
2023-05-13T08:18:24.161Z,362
2023-05-13T08:19:24.287Z,376
2023-05-13T08:20:24.642Z,365
2023-05-13T08:21:24.099Z,367
2023-05-13T08:22:24.396Z,365
2023-05-13T08:23:30.736Z,352
2023-05-13T08:24:24.147Z,351
2023-05-13T08:25:24.462Z,365
2023-05-13T08:27:24.702Z,354
2023-05-13T08:28:23.909Z,348
2023-05-13T08:30:24.558Z,351
2023-05-13T08:31:24.772Z,347
2023-05-13T08:32:24.208Z,356
2023-05-13T08:33:24.568Z,355
2023-05-13T08:34:24.631Z,366
2023-05-13T08:35:24.514Z,370
2023-05-13T08:36:24.077Z,361
2023-05-13T08:37:24.410Z,360
2023-05-13T08:38:24.865Z,355
2023-05-13T08:39:24.199Z,349
2023-05-13T08:40:24.657Z,357
2023-05-13T08:41:24.456Z,358
2023-05-13T08:42:24.616Z,357
2023-05-13T08:43:24.667Z,351
2023-05-13T08:44:24.312Z,350
2023-05-13T08:45:24.887Z,356
2023-05-13T08:46:24.660Z,365
2023-05-13T08:47:24.498Z,359
2023-05-13T08:48:24.649Z,358
2023-05-13T08:49:24.695Z,345
2023-05-13T08:50:24.515Z,353
2023-05-13T08:51:24.825Z,354
2023-05-13T08:53:24.786Z,351
2023-05-13T08:54:24.451Z,360
2023-05-13T08:55:25.095Z,355
2023-05-13T08:56:24.802Z,360
2023-05-13T08:58:24.523Z,356
2023-05-13T08:59:25.129Z,354
2023-05-13T09:00:25.663Z,345
2023-05-13T09:02:25.006Z,364
2023-05-13T09:03:24.513Z,350
2023-05-13T09:04:24.508Z,349
2023-05-13T09:05:25.309Z,357
2023-05-13T09:06:24.325Z,365
2023-05-13T09:07:24.736Z,360
2023-05-13T09:08:24.539Z,364
2023-05-13T09:09:24.359Z,351
2023-05-13T09:10:24.654Z,355
2023-05-13T09:11:24.056Z,359
2023-05-13T09:12:24.249Z,347
2023-05-13T09:13:24.478Z,352
2023-05-13T09:14:24.730Z,348
2023-05-13T09:15:24.845Z,359
2023-05-13T09:16:24.546Z,356
2023-05-13T09:17:24.237Z,353
2023-05-13T09:18:25.302Z,351
2023-05-13T09:19:24.364Z,356
2023-05-13T09:20:24.471Z,348
2023-05-13T09:22:24.788Z,349
2023-05-13T09:23:24.402Z,345
2023-05-13T09:24:24.888Z,342
2023-05-13T09:25:24.840Z,343
2023-05-13T09:26:24.547Z,344
2023-05-13T09:27:24.973Z,345
2023-05-13T09:28:24.550Z,351
2023-05-13T09:29:24.677Z,358
2023-05-13T09:31:24.643Z,348
2023-05-13T09:32:24.394Z,352
2023-05-13T09:33:24.936Z,356
2023-05-13T09:34:24.427Z,367
2023-05-13T09:35:24.647Z,363
2023-05-13T09:36:24.586Z,353
2023-05-13T09:37:24.504Z,350
2023-05-13T09:38:24.375Z,344
2023-05-13T09:39:24.663Z,350
2023-05-13T09:41:25.040Z,341
2023-05-13T09:42:24.778Z,342
2023-05-13T09:43:24.410Z,351
2023-05-13T09:44:24.896Z,360
2023-05-13T09:45:25.068Z,356
2023-05-13T09:46:24.923Z,360
2023-05-13T09:47:24.734Z,347
2023-05-13T09:48:24.453Z,343
2023-05-13T09:49:25.137Z,345
2023-05-13T09:50:24.933Z,352
2023-05-13T09:51:24.756Z,357
2023-05-13T09:52:24.572Z,350
2023-05-13T09:53:24.519Z,338
2023-05-13T09:54:24.928Z,339
2023-05-13T09:55:24.799Z,342
2023-05-13T09:56:24.883Z,353
2023-05-13T09:57:25.353Z,345
2023-05-13T09:58:24.610Z,360
2023-05-13T09:59:24.730Z,359
2023-05-13T10:00:32.761Z,350
2023-05-13T10:01:24.574Z,345
2023-05-13T10:02:24.360Z,341
2023-05-13T10:03:25.062Z,344
2023-05-13T10:05:24.505Z,339
2023-05-13T10:06:24.963Z,358
2023-05-13T10:07:24.487Z,362
2023-05-13T10:08:24.569Z,352
2023-05-13T10:09:24.508Z,342
2023-05-13T10:10:24.662Z,340
2023-05-13T10:11:24.638Z,351
2023-05-13T10:12:24.348Z,354
2023-05-13T10:13:24.916Z,332
2023-05-13T10:14:24.592Z,337
2023-05-13T10:15:24.507Z,339
2023-05-13T10:16:24.983Z,350
2023-05-13T10:17:24.514Z,355
2023-05-13T10:18:24.529Z,347
2023-05-13T10:19:24.281Z,352
2023-05-13T10:20:24.819Z,351
2023-05-13T10:21:24.463Z,345
2023-05-13T10:22:24.334Z,343
2023-05-13T10:23:25.022Z,351
2023-05-13T10:24:24.695Z,357
2023-05-13T10:25:24.573Z,345
2023-05-13T10:26:24.262Z,342
2023-05-13T10:28:24.378Z,337
2023-05-13T10:29:24.632Z,334
2023-05-13T10:30:25.472Z,346
2023-05-13T10:31:24.976Z,366
2023-05-13T10:32:24.400Z,361
2023-05-13T10:33:24.605Z,364
2023-05-13T10:34:24.163Z,361
2023-05-13T10:35:24.431Z,351
2023-05-13T10:36:24.358Z,353
2023-05-13T10:37:24.880Z,346
2023-05-13T10:39:24.176Z,361
2023-05-13T10:40:24.717Z,364
2023-05-13T10:41:24.227Z,367
2023-05-13T10:42:24.431Z,355
2023-05-13T10:43:24.800Z,360
2023-05-13T10:44:24.313Z,349
2023-05-13T10:45:24.909Z,348
2023-05-13T10:46:24.433Z,358
2023-05-13T10:47:25.312Z,352
2023-05-13T10:50:25.021Z,350
2023-05-13T10:51:24.951Z,349
2023-05-13T10:52:24.737Z,357
2023-05-13T10:53:24.582Z,348
2023-05-13T10:54:24.561Z,350
2023-05-13T10:55:24.869Z,346
2023-05-13T10:56:24.687Z,337
2023-05-13T10:57:38.564Z,344
2023-05-13T10:58:24.436Z,346
2023-05-13T10:59:24.928Z,336
2023-05-13T11:00:25.438Z,335
2023-05-13T11:01:24.689Z,346
2023-05-13T11:02:24.426Z,341
2023-05-13T11:03:26.829Z,345
2023-05-13T11:04:24.602Z,347
2023-05-13T11:05:24.521Z,348
2023-05-13T11:06:24.776Z,355
2023-05-13T11:07:24.196Z,367
2023-05-13T11:08:24.790Z,349
2023-05-13T11:10:24.296Z,352
2023-05-13T11:11:24.639Z,349
2023-05-13T11:12:24.646Z,345
2023-05-13T11:13:24.100Z,349
2023-05-13T11:14:24.456Z,354
2023-05-13T11:15:25.096Z,364
2023-05-13T11:16:24.381Z,352
2023-05-13T11:17:24.236Z,356
2023-05-13T11:18:24.918Z,362
2023-05-13T11:20:24.529Z,348
2023-05-13T11:21:24.894Z,342
2023-05-13T11:22:24.602Z,349
2023-05-13T11:23:24.552Z,348
2023-05-13T11:24:24.555Z,346
2023-05-13T11:25:24.546Z,354
2023-05-13T11:26:25.041Z,349
2023-05-13T11:27:24.540Z,356
2023-05-13T11:28:24.841Z,361
2023-05-13T11:29:24.393Z,349
2023-05-13T11:30:24.962Z,345
2023-05-13T11:31:24.219Z,338
2023-05-13T11:32:24.575Z,341
2023-05-13T11:33:24.717Z,350
2023-05-13T11:34:24.920Z,351
2023-05-13T11:35:24.528Z,354
2023-05-13T11:36:24.952Z,360
2023-05-13T11:37:24.424Z,371
2023-05-13T11:38:24.752Z,362
2023-05-13T11:40:24.668Z,353
2023-05-13T11:41:24.219Z,345
2023-05-13T11:42:24.318Z,348
2023-05-13T11:43:24.630Z,336
2023-05-13T11:44:24.409Z,328
2023-05-13T11:45:25.044Z,319
2023-05-13T11:46:24.938Z,309
2023-05-13T11:47:24.936Z,303
2023-05-13T11:49:24.528Z,308
2023-05-13T11:50:24.747Z,318
2023-05-13T11:51:24.553Z,321
2023-05-13T11:52:24.467Z,330
2023-05-13T11:53:24.933Z,319
2023-05-13T11:54:24.519Z,316
2023-05-13T11:55:24.322Z,307
2023-05-13T11:56:24.595Z,317
2023-05-13T11:57:24.243Z,324
2023-05-13T11:58:24.512Z,336
2023-05-13T12:00:25.305Z,334
2023-05-13T12:01:24.621Z,332
2023-05-13T12:02:25.239Z,335
2023-05-13T12:03:24.690Z,329
2023-05-13T12:05:25.310Z,334
2023-05-13T12:06:24.861Z,328
2023-05-13T12:07:24.353Z,326
2023-05-13T12:08:24.905Z,324
2023-05-13T12:09:24.816Z,326
2023-05-13T12:10:24.882Z,332
2023-05-13T12:13:24.590Z,335
2023-05-13T12:14:26.376Z,344
2023-05-13T12:15:24.910Z,326
2023-05-13T12:16:24.788Z,332
2023-05-13T12:17:24.533Z,329
2023-05-13T12:18:24.568Z,327
2023-05-13T12:19:24.633Z,331
2023-05-13T12:20:24.783Z,324
2023-05-13T12:21:24.624Z,329
2023-05-13T12:22:24.423Z,312
2023-05-13T12:23:24.572Z,311
2023-05-13T12:24:24.916Z,323
2023-05-13T12:26:24.618Z,331
2023-05-13T12:27:24.341Z,326
2023-05-13T12:28:24.997Z,342
2023-05-13T12:29:25.173Z,349
2023-05-13T12:30:25.134Z,333
2023-05-13T12:31:24.856Z,335
2023-05-13T12:32:24.542Z,337
2023-05-13T12:33:25.157Z,331
2023-05-13T12:34:24.600Z,336
2023-05-13T12:35:24.911Z,326
2023-05-13T12:36:24.576Z,327
2023-05-13T12:37:24.272Z,341
2023-05-13T12:38:25.132Z,344
2023-05-13T12:39:24.583Z,330
2023-05-13T12:40:24.248Z,332
2023-05-13T12:41:24.552Z,333
2023-05-13T12:42:24.301Z,335
2023-05-13T12:44:24.339Z,342
2023-05-13T12:46:24.371Z,334
2023-05-13T12:47:24.905Z,332
2023-05-13T12:48:24.336Z,333
2023-05-13T12:49:24.758Z,342
2023-05-13T12:51:24.905Z,325
2023-05-13T12:52:24.463Z,324
2023-05-13T12:53:24.826Z,335
2023-05-13T12:54:24.301Z,331
2023-05-13T12:55:24.854Z,333
2023-05-13T12:56:24.647Z,337
2023-05-13T12:58:24.374Z,342
2023-05-13T12:59:24.662Z,340
2023-05-13T13:00:31.069Z,339
2023-05-13T13:01:25.036Z,328
2023-05-13T13:02:30.095Z,324
2023-05-13T13:03:24.963Z,333
2023-05-13T13:04:24.707Z,334
2023-05-13T13:05:24.716Z,326
2023-05-13T13:07:24.123Z,330
2023-05-13T13:08:24.610Z,328
2023-05-13T13:09:24.365Z,324
2023-05-13T13:10:24.778Z,327
2023-05-13T13:11:24.396Z,331
2023-05-13T13:12:24.683Z,322
2023-05-13T13:13:24.251Z,323
2023-05-13T13:14:24.615Z,327
2023-05-13T13:15:24.550Z,331
2023-05-13T13:16:24.076Z,335
2023-05-13T13:17:24.623Z,331
2023-05-13T13:18:38.637Z,344
2023-05-13T13:19:24.201Z,334
2023-05-13T13:20:25.078Z,323
2023-05-13T13:21:24.910Z,324
2023-05-13T13:22:24.134Z,333
2023-05-13T13:23:24.329Z,338
2023-05-13T13:24:24.616Z,335
2023-05-13T13:25:24.704Z,338
2023-05-13T13:26:24.293Z,346
2023-05-13T13:27:24.747Z,338
2023-05-13T13:28:24.455Z,332
2023-05-13T13:29:24.899Z,334
2023-05-13T13:30:24.939Z,340
2023-05-13T13:31:24.545Z,333
2023-05-13T13:32:24.296Z,330
2023-05-13T13:33:25.004Z,331
2023-05-13T13:34:24.914Z,322
2023-05-13T13:35:24.649Z,319
2023-05-13T13:36:24.251Z,325
2023-05-13T13:37:24.442Z,322
2023-05-13T13:38:24.729Z,330
2023-05-13T13:39:24.302Z,325
2023-05-13T13:40:25.032Z,322
2023-05-13T13:41:24.489Z,319
2023-05-13T13:42:28.654Z,332
2023-05-13T13:43:24.159Z,324
2023-05-13T13:44:24.300Z,318
2023-05-13T13:45:24.790Z,324
2023-05-13T13:46:24.495Z,331
2023-05-13T13:47:24.272Z,324
2023-05-13T13:48:24.667Z,334
2023-05-13T13:49:25.065Z,325
2023-05-13T13:50:24.800Z,320
2023-05-13T13:51:24.302Z,332
2023-05-13T13:52:24.682Z,323
2023-05-13T13:53:24.387Z,316
2023-05-13T13:54:24.960Z,318
2023-05-13T13:55:24.617Z,328
2023-05-13T13:56:24.717Z,327
2023-05-13T13:57:24.584Z,329
2023-05-13T13:58:25.161Z,324
2023-05-13T13:59:24.872Z,326
2023-05-13T14:01:30.349Z,314
2023-05-13T14:02:24.310Z,329
2023-05-13T14:03:24.848Z,331
2023-05-13T14:04:24.751Z,327
2023-05-13T14:05:24.672Z,334
2023-05-13T14:06:24.176Z,333
2023-05-13T14:07:24.271Z,332
2023-05-13T14:08:24.571Z,325
2023-05-13T14:09:24.796Z,320
2023-05-13T14:11:24.682Z,324
2023-05-13T14:12:24.309Z,329
2023-05-13T14:13:24.760Z,315
2023-05-13T14:14:24.128Z,312
2023-05-13T14:15:24.654Z,323
2023-05-13T14:16:24.225Z,320
2023-05-13T14:17:24.659Z,317
2023-05-13T14:18:24.253Z,328
2023-05-13T14:19:24.478Z,333
2023-05-13T14:20:24.546Z,340
2023-05-13T14:21:24.786Z,341
2023-05-13T14:22:24.284Z,338
2023-05-13T14:23:24.509Z,344
2023-05-13T14:24:24.757Z,330
2023-05-13T14:25:24.460Z,322
2023-05-13T14:26:24.577Z,321
2023-05-13T14:27:24.850Z,331
2023-05-13T14:28:25.182Z,322
2023-05-13T14:29:24.201Z,324
2023-05-13T14:31:24.686Z,326
2023-05-13T14:32:24.230Z,314
2023-05-13T14:33:24.366Z,316
2023-05-13T14:34:24.950Z,321
2023-05-13T14:35:24.320Z,323
2023-05-13T14:36:24.622Z,319
2023-05-13T14:37:24.786Z,324
2023-05-13T14:38:24.661Z,328
2023-05-13T14:39:24.112Z,317
2023-05-13T14:40:24.727Z,322
2023-05-13T14:41:24.242Z,318
2023-05-13T14:42:24.724Z,334
2023-05-13T14:43:24.183Z,337
2023-05-13T14:44:24.637Z,335
2023-05-13T14:45:24.295Z,331
2023-05-13T14:46:24.705Z,338
2023-05-13T14:47:24.350Z,335
2023-05-13T14:48:24.191Z,339
2023-05-13T14:49:24.686Z,329
2023-05-13T14:50:25.216Z,326